Time;durP1;ratioP1;P1;durP2;ratioP2;P2;SDS_P1;SDS_P2;PMS_P1;PMS_P2;Temp;Humidity;BMP_temperature;BMP_pressure;BME280_temperature;BME280_humidity;BME280_pressure;Samples;Min_cycle;Max_cycle;Signal;HPM_P1;HPM_P2
2022/03/11 00:00:00;;;;;;;;;24.00;22.75;;;;;14.54;44.66;100739.31;2105145;27;48296;-67
2022/03/11 00:01:01;;;;;;;;;25.50;23.50;;;;;14.55;44.79;100737.53;2110846;27;47999;-67
2022/03/11 00:02:02;;;;;;;;;19.75;19.25;;;;;14.55;44.69;100738.38;2107789;27;47828;-67
2022/03/11 00:03:02;;;;;;;;;25.50;22.75;;;;;14.54;44.79;100733.97;2103834;27;47998;-65
2022/03/11 00:04:03;;;;;;;;;27.25;25.00;;;;;14.56;44.82;100741.94;2128558;27;47731;-69
2022/03/11 00:05:04;;;;;;;;;24.50;23.00;;;;;14.55;44.60;100742.88;2120318;27;47644;-68
2022/03/11 00:06:05;;;;;;;;;23.60;23.60;;;;;14.56;44.85;100733.91;2111443;27;47873;-68
2022/03/11 00:07:05;;;;;;;;;24.50;22.00;;;;;14.56;45.01;100732.13;2094322;28;47454;-68
2022/03/11 00:08:06;;;;;;;;;27.25;25.25;;;;;14.57;44.85;100731.19;2103844;28;47824;-66
2022/03/11 00:09:06;;;;;;;;;19.00;19.00;;;;;14.57;44.67;100732.97;2128694;27;47920;-67
2022/03/11 00:10:07;;;;;;;;;23.50;23.50;;;;;14.57;44.76;100724.97;2126206;27;47675;-66
2022/03/11 00:11:08;;;;;;;;;25.50;23.75;;;;;14.57;44.90;100723.16;2121879;27;47273;-68
2022/03/11 00:12:09;;;;;;;;;22.75;22.75;;;;;14.58;44.86;100726.72;2121991;27;47651;-67
2022/03/11 00:13:09;;;;;;;;;24.25;22.75;;;;;14.56;45.09;100723.25;2121859;27;47216;-68
2022/03/11 00:14:09;;;;;;;;;24.50;22.00;;;;;14.56;45.03;100725.91;2126383;27;47329;-68
2022/03/11 00:15:10;;;;;;;;;19.00;17.50;;;;;14.56;44.95;100720.56;2113515;27;46952;-68
2022/03/11 00:16:11;;;;;;;;;25.50;23.25;;;;;14.56;44.82;100720.56;2113356;27;47954;-68
2022/03/11 00:17:11;;;;;;;;;21.75;21.25;;;;;14.55;45.00;100722.38;2122667;27;48073;-66
2022/03/11 00:18:13;;;;;;;;;24.75;22.50;;;;;14.55;45.02;100716.16;2122262;27;47839;-67
2022/03/11 00:19:13;;;;;;;;;23.00;23.00;;;;;14.54;44.71;100725.97;2122849;27;47246;-66
2022/03/11 00:20:19;;;;;;;;;22.75;21.50;;;;;14.51;45.13;100718.09;2122643;27;47198;-66
2022/03/11 00:21:19;;;;;;;;;23.40;22.00;;;;;14.49;44.76;100716.41;2123245;27;48364;-65
2022/03/11 00:22:20;;;;;;;;;26.00;24.00;;;;;14.47;45.05;100716.44;2125062;27;46528;-67
2022/03/11 00:23:20;;;;;;;;;28.25;25.25;;;;;14.45;44.98;100715.63;2122880;27;47569;-68
2022/03/11 00:24:21;;;;;;;;;21.75;21.75;;;;;14.43;44.91;100707.66;2122372;27;47577;-68
2022/03/11 00:25:21;;;;;;;;;22.00;22.00;;;;;14.43;45.19;100717.44;2123234;27;47528;-66
2022/03/11 00:26:21;;;;;;;;;24.75;22.00;;;;;14.43;44.99;100712.13;2124889;27;47773;-66
2022/03/11 00:27:22;;;;;;;;;21.25;19.25;;;;;14.41;45.00;100712.19;2122707;27;47664;-68
2022/03/11 00:28:23;;;;;;;;;24.75;24.25;;;;;14.39;44.89;100713.16;2121994;27;47938;-67
2022/03/11 00:29:23;;;;;;;;;23.50;22.25;;;;;14.37;45.25;100717.69;2110777;27;47885;-66
2022/03/11 00:30:24;;;;;;;;;24.50;24.50;;;;;14.37;45.31;100720.38;2112172;27;47684;-67
2022/03/11 00:31:25;;;;;;;;;28.00;26.00;;;;;14.37;45.20;100710.56;2124711;27;47627;-66
2022/03/11 00:32:25;;;;;;;;;27.00;24.80;;;;;14.37;45.24;100712.34;2124971;27;47835;-66
2022/03/11 00:33:25;;;;;;;;;29.00;26.50;;;;;14.36;45.14;100713.28;2123292;27;47356;-67
2022/03/11 00:34:26;;;;;;;;;24.75;24.00;;;;;14.35;45.08;100717.72;2124761;27;47095;-67
2022/03/11 00:35:27;;;;;;;;;22.75;20.00;;;;;14.35;45.25;100715.06;2122988;27;47104;-66
2022/03/11 00:36:27;;;;;;;;;17.50;16.00;;;;;14.34;45.39;100705.31;2122444;27;47903;-67
2022/03/11 00:37:27;;;;;;;;;20.50;19.75;;;;;14.33;45.36;100703.56;2124259;27;47582;-68
2022/03/11 00:38:28;;;;;;;;;26.25;26.25;;;;;14.33;45.63;100700.03;2123440;27;47961;-67
2022/03/11 00:39:28;;;;;;;;;21.00;21.00;;;;;14.32;45.50;100699.16;2112700;27;47337;-66
2022/03/11 00:40:29;;;;;;;;;22.50;22.00;;;;;14.31;45.54;100693.88;2118423;27;47301;-68
2022/03/11 00:41:29;;;;;;;;;21.50;20.00;;;;;14.32;45.69;100701.84;2124739;27;47975;-65
2022/03/11 00:42:30;;;;;;;;;22.00;21.00;;;;;14.31;45.65;100694.75;2127744;27;47821;-69
2022/03/11 00:43:30;;;;;;;;;24.75;23.25;;;;;14.31;45.62;100691.22;2128129;27;47377;-67
2022/03/11 00:44:31;;;;;;;;;22.50;21.50;;;;;14.30;45.25;100690.34;2129661;27;47826;-68
2022/03/11 00:45:31;;;;;;;;;20.75;20.50;;;;;14.28;45.32;100689.53;2124950;27;47618;-64
2022/03/11 00:46:32;;;;;;;;;20.75;20.25;;;;;14.27;45.47;100685.13;2128971;27;46467;-67
2022/03/11 00:47:32;;;;;;;;;25.50;25.50;;;;;14.26;45.32;100691.41;2127510;27;48256;-68
2022/03/11 00:48:32;;;;;;;;;21.00;20.00;;;;;14.26;45.74;100686.06;2123759;27;46746;-67
2022/03/11 00:49:33;;;;;;;;;26.00;23.25;;;;;14.26;45.83;100690.53;2125025;27;47303;-69
2022/03/11 00:50:34;;;;;;;;;20.40;20.20;;;;;14.26;45.53;100688.72;2128997;27;48235;-68
2022/03/11 00:51:34;;;;;;;;;22.25;22.25;;;;;14.27;45.55;100689.59;2128564;27;48871;-68
2022/03/11 00:52:35;;;;;;;;;23.75;22.25;;;;;14.27;45.76;100685.13;2123209;27;47489;-68
2022/03/11 00:53:35;;;;;;;;;19.00;19.00;;;;;14.27;45.86;100686.94;2107588;27;47573;-67
2022/03/11 00:54:36;;;;;;;;;20.50;20.50;;;;;14.27;45.71;100686.94;2105549;27;48174;-68
2022/03/11 00:55:36;;;;;;;;;23.00;23.00;;;;;14.26;45.61;100682.53;2125021;27;47674;-68
2022/03/11 00:56:36;;;;;;;;;18.25;17.50;;;;;14.28;45.68;100694.00;2122487;27;47251;-66
2022/03/11 00:57:37;;;;;;;;;23.25;19.75;;;;;14.27;44.96;100679.78;2121860;27;47687;-66
2022/03/11 00:58:38;;;;;;;;;24.75;23.75;;;;;14.27;45.54;100678.91;2130602;27;47710;-67
2022/03/11 00:59:38;;;;;;;;;21.00;20.75;;;;;14.27;45.65;100676.25;2123743;27;46199;-66
2022/03/11 01:00:38;;;;;;;;;15.75;15.50;;;;;14.27;45.73;100681.59;2122411;27;48220;-68
2022/03/11 01:01:39;;;;;;;;;21.25;19.50;;;;;14.27;45.37;100678.91;2122507;27;47385;-68
2022/03/11 01:02:39;;;;;;;;;19.00;19.00;;;;;14.26;45.55;100675.38;2122408;27;47763;-66
2022/03/11 01:03:40;;;;;;;;;21.50;20.00;;;;;14.26;45.64;100675.38;2120486;27;47413;-65
2022/03/11 01:04:40;;;;;;;;;23.00;23.00;;;;;14.26;45.52;100678.06;2121443;27;47793;-68
2022/03/11 01:05:41;;;;;;;;;21.00;21.00;;;;;14.26;45.68;100672.72;2121823;27;47598;-67
2022/03/11 01:06:41;;;;;;;;;20.25;18.75;;;;;14.26;45.75;100666.50;2130502;27;47965;-67
2022/03/11 01:07:42;;;;;;;;;25.25;23.75;;;;;14.25;45.50;100676.31;2126245;27;47453;-67
2022/03/11 01:08:42;;;;;;;;;26.00;24.00;;;;;14.23;45.71;100670.16;2121574;27;47461;-66
2022/03/11 01:09:44;;;;;;;;;20.60;20.60;;;;;14.22;45.59;100671.06;2121650;27;47163;-68
2022/03/11 01:10:44;;;;;;;;;19.50;18.50;;;;;14.21;45.77;100666.66;2129968;27;46635;-69
2022/03/11 01:11:45;;;;;;;;;24.25;19.50;;;;;14.22;45.97;100662.19;2121953;27;48118;-67
2022/03/11 01:12:45;;;;;;;;;19.75;19.75;;;;;14.21;45.72;100669.31;2121810;27;46549;-68
2022/03/11 01:13:46;;;;;;;;;20.75;19.25;;;;;14.22;45.81;100662.19;2122849;27;47920;-67
2022/03/11 01:14:46;;;;;;;;;23.00;20.75;;;;;14.21;45.82;100666.66;2121773;27;47524;-67
2022/03/11 01:15:47;;;;;;;;;20.75;20.75;;;;;14.23;45.89;100666.59;2125191;27;47245;-67
2022/03/11 01:16:47;;;;;;;;;21.50;20.00;;;;;14.22;45.90;100663.06;2121656;27;47387;-69
2022/03/11 01:17:47;;;;;;;;;22.00;20.25;;;;;14.23;45.83;100661.25;2122590;27;47342;-68
2022/03/11 01:18:48;;;;;;;;;21.75;20.25;;;;;14.21;45.89;100657.78;2121860;27;47536;-67
2022/03/11 01:19:49;;;;;;;;;19.75;18.50;;;;;14.23;45.93;100655.91;2123642;27;47913;-67
2022/03/11 01:20:49;;;;;;;;;20.50;20.50;;;;;14.24;45.64;100657.69;2121780;27;47483;-68
2022/03/11 01:21:49;;;;;;;;;24.75;24.75;;;;;14.22;45.72;100659.53;2125359;27;47358;-68
2022/03/11 01:22:51;;;;;;;;;22.25;22.25;;;;;14.23;45.76;100653.25;2128429;27;46765;-68
2022/03/11 01:23:51;;;;;;;;;25.40;22.00;;;;;14.22;45.68;100657.72;2127330;27;47870;-69
2022/03/11 01:24:52;;;;;;;;;18.25;17.75;;;;;14.22;45.67;100652.38;2121776;27;47214;-67
2022/03/11 01:25:52;;;;;;;;;18.00;17.25;;;;;14.23;45.72;100651.47;2125951;27;47755;-66
2022/03/11 01:26:52;;;;;;;;;20.00;18.25;;;;;14.24;45.92;100655.03;2111664;27;47374;-66
2022/03/11 01:27:53;;;;;;;;;25.25;24.00;;;;;14.23;45.85;100654.16;2110227;27;47523;-66
2022/03/11 01:28:53;;;;;;;;;22.75;20.25;;;;;14.23;45.83;100658.59;2126917;27;47593;-68
2022/03/11 01:29:53;;;;;;;;;24.25;23.00;;;;;14.22;45.76;100651.50;2125828;27;47458;-68
2022/03/11 01:30:54;;;;;;;;;18.25;18.25;;;;;14.21;45.56;100652.44;2121469;27;47177;-69
2022/03/11 01:31:56;;;;;;;;;20.25;19.50;;;;;14.19;45.51;100644.50;2125276;27;47989;-68
2022/03/11 01:32:56;;;;;;;;;19.80;18.80;;;;;14.17;45.71;100643.69;2122066;27;47553;-68
2022/03/11 01:33:57;;;;;;;;;21.00;21.00;;;;;14.16;45.76;100649.97;2126717;27;47708;-68
2022/03/11 01:34:57;;;;;;;;;25.50;24.50;;;;;14.15;45.78;100645.56;2130126;27;47646;-66
2022/03/11 01:35:58;;;;;;;;;24.00;22.25;;;;;14.15;45.87;100653.56;2125254;27;48112;-68
2022/03/11 01:36:58;;;;;;;;;24.25;22.25;;;;;14.13;46.05;100642.94;2121820;27;47910;-66
2022/03/11 01:37:59;;;;;;;;;18.75;18.00;;;;;14.13;45.96;100647.41;2125032;27;47257;-69
2022/03/11 01:38:59;;;;;;;;;24.00;22.75;;;;;14.13;45.95;100642.94;2121295;27;47495;-67
2022/03/11 01:40:00;;;;;;;;;21.50;21.50;;;;;14.13;45.91;100632.28;2125269;27;47516;-67
2022/03/11 01:41:01;;;;;;;;;24.50;21.75;;;;;14.15;45.86;100640.22;2121213;27;47665;-66
2022/03/11 01:42:02;;;;;;;;;21.60;20.20;;;;;14.14;45.86;100641.16;2127836;27;47480;-68
2022/03/11 01:43:02;;;;;;;;;24.50;22.00;;;;;14.14;45.94;100639.34;2129353;27;47190;-68
2022/03/11 01:44:08;;;;;;;;;22.75;21.75;;;;;14.14;45.79;100636.69;2125542;27;46432;-67
2022/03/11 01:45:09;;;;;;;;;23.40;22.00;;;;;14.11;45.87;100634.13;2124502;27;47981;-68
2022/03/11 01:46:09;;;;;;;;;19.75;17.75;;;;;14.08;45.85;100634.22;2125378;27;47661;-66
2022/03/11 01:47:10;;;;;;;;;19.50;19.00;;;;;14.08;45.94;100636.03;2121504;27;46617;-68
2022/03/11 01:48:11;;;;;;;;;21.25;20.50;;;;;14.08;46.01;100644.91;2124788;27;48030;-67
2022/03/11 01:49:12;;;;;;;;;21.60;19.60;;;;;14.07;46.11;100640.50;2123751;27;48429;-67
2022/03/11 01:50:12;;;;;;;;;22.00;20.50;;;;;14.08;46.19;100634.22;2125762;27;47520;-68
2022/03/11 01:51:13;;;;;;;;;21.50;21.00;;;;;14.07;46.16;100626.28;2120939;27;47514;-66
2022/03/11 01:52:14;;;;;;;;;22.75;22.75;;;;;14.06;46.36;100627.22;2126021;27;47584;-68
2022/03/11 01:53:15;;;;;;;;;22.00;21.25;;;;;14.05;46.12;100623.66;2122182;27;47585;-68
2022/03/11 01:54:15;;;;;;;;;18.75;18.75;;;;;14.04;46.29;100629.94;2129138;27;48014;-68
2022/03/11 01:55:17;;;;;;;;;19.00;18.50;;;;;14.01;45.97;100629.19;2128105;27;47798;-68
2022/03/11 01:56:18;;;;;;;;;20.20;18.80;;;;;14.00;46.19;100624.78;2124941;27;47489;-67
2022/03/11 01:57:19;;;;;;;;;16.60;13.80;;;;;13.99;46.36;100629.25;2098745;28;48170;-67
2022/03/11 01:58:21;;;;;;;;;18.00;17.00;;;;;13.99;46.57;100618.56;2098122;28;47476;-68
2022/03/11 01:59:22;;;;;;;;;18.00;18.00;;;;;13.99;46.35;100618.56;2127819;27;47805;-69
2022/03/11 02:00:22;;;;;;;;;21.75;20.50;;;;;14.00;46.27;100616.78;2123523;27;47542;-66
2022/03/11 02:01:24;;;;;;;;;21.50;20.75;;;;;13.99;46.30;100610.56;2122221;27;47748;-67
2022/03/11 02:02:25;;;;;;;;;22.40;21.00;;;;;13.98;46.28;100611.50;2121220;27;48017;-68
2022/03/11 02:03:25;;;;;;;;;22.25;19.75;;;;;13.97;46.41;100604.41;2123174;27;47796;-66
2022/03/11 02:04:26;;;;;;;;;17.50;16.75;;;;;13.96;46.37;100610.66;2123783;27;47603;-68
2022/03/11 02:05:28;;;;;;;;;20.00;19.75;;;;;13.95;46.45;100608.06;2123249;27;47746;-67
2022/03/11 02:06:29;;;;;;;;;26.40;23.40;;;;;13.96;46.55;100615.13;2124136;27;48127;-67
2022/03/11 02:07:30;;;;;;;;;22.60;19.60;;;;;13.96;46.59;100607.13;2128033;27;48163;-68
2022/03/11 02:08:30;;;;;;;;;21.00;18.00;;;;;13.96;46.27;100617.78;2122796;27;47559;-66
2022/03/11 02:09:31;;;;;;;;;20.75;19.25;;;;;13.97;46.50;100612.41;2123896;27;47181;-68
2022/03/11 02:10:32;;;;;;;;;22.00;22.00;;;;;13.97;46.51;100615.06;2127721;27;47058;-69
2022/03/11 02:11:32;;;;;;;;;19.25;19.00;;;;;13.96;46.69;100608.00;2121667;27;47318;-68
2022/03/11 02:12:36;;;;;;;;;21.75;20.25;;;;;13.98;46.67;100618.63;2122273;27;47334;-66
2022/03/11 02:13:54;;;;;;;;;19.80;19.80;;;;;13.97;46.57;100616.88;2122327;27;47448;-67
2022/03/11 02:14:55;;;;;;;;;15.60;14.40;;;;;13.97;46.79;100614.19;2127766;27;47629;-68
2022/03/11 02:15:56;;;;;;;;;25.00;23.60;;;;;13.97;46.58;100615.06;2132652;27;48044;-66
2022/03/11 02:16:56;;;;;;;;;20.00;19.75;;;;;13.99;46.54;100615.03;2133397;27;47682;-66
2022/03/11 02:17:57;;;;;;;;;21.50;19.50;;;;;14.00;46.71;100612.31;2132817;27;47116;-67
2022/03/11 02:18:58;;;;;;;;;19.75;19.75;;;;;14.00;46.65;100614.13;2132021;27;47860;-64
2022/03/11 02:19:59;;;;;;;;;23.60;22.40;;;;;13.99;46.74;100615.03;2132826;27;47681;-65
2022/03/11 02:20:59;;;;;;;;;23.50;22.75;;;;;13.99;46.55;100612.38;2124200;27;47838;-66
2022/03/11 02:22:05;;;;;;;;;19.60;19.00;;;;;13.98;46.88;100614.16;2114983;27;47795;-69
2022/03/11 02:23:07;;;;;;;;;20.00;19.80;;;;;13.99;46.57;100615.03;2115821;27;47447;-68
2022/03/11 02:24:09;;;;;;;;;20.20;20.20;;;;;14.00;46.88;100616.78;2124288;27;47479;-66
2022/03/11 02:25:10;;;;;;;;;20.80;20.40;;;;;14.01;46.90;100613.19;2123913;27;47924;-66
2022/03/11 02:26:11;;;;;;;;;23.75;23.25;;;;;14.02;46.59;100612.25;2097091;28;47371;-66
2022/03/11 02:27:11;;;;;;;;;25.00;23.60;;;;;14.02;46.66;100617.59;2104386;28;48366;-66
2022/03/11 02:28:12;;;;;;;;;22.00;22.00;;;;;14.00;46.73;100609.66;2130818;27;47251;-66
2022/03/11 02:29:12;;;;;;;;;22.00;19.50;;;;;13.98;46.82;100608.84;2124257;27;47539;-66
2022/03/11 02:30:16;;;;;;;;;22.25;20.75;;;;;13.97;46.90;100612.41;2123995;27;47520;-67
2022/03/11 02:31:23;;;;;;;;;23.80;20.40;;;;;13.96;46.87;100612.47;2123970;27;46152;-66
2022/03/11 02:32:24;;;;;;;;;21.40;21.40;;;;;13.94;47.03;100607.19;2124385;27;48111;-66
2022/03/11 02:33:24;;;;;;;;;23.25;23.25;;;;;13.96;47.01;100605.31;2123968;27;47945;-67
2022/03/11 02:34:24;;;;;;;;;22.25;21.75;;;;;13.97;46.98;100606.19;2105645;28;47555;-67
2022/03/11 02:35:25;;;;;;;;;22.25;21.75;;;;;13.95;47.03;100605.38;2114458;27;47844;-68
2022/03/11 02:36:26;;;;;;;;;23.25;21.75;;;;;13.94;46.93;100604.53;2129201;27;47450;-65
2022/03/11 02:37:26;;;;;;;;;22.20;21.20;;;;;13.94;47.02;100600.97;2124221;27;47832;-63
2022/03/11 02:38:27;;;;;;;;;25.25;21.25;;;;;13.91;46.89;100598.44;2124246;27;47934;-66
2022/03/11 02:39:27;;;;;;;;;26.00;24.50;;;;;13.89;47.09;100602.97;2124212;27;47936;-66
2022/03/11 02:40:28;;;;;;;;;25.25;23.00;;;;;13.87;47.14;100605.69;2124294;27;47629;-66
2022/03/11 02:41:28;;;;;;;;;26.00;24.00;;;;;13.85;47.07;100596.88;2124058;27;47983;-66
2022/03/11 02:42:29;;;;;;;;;26.75;25.00;;;;;13.83;47.39;100596.91;2124305;27;47485;-67
2022/03/11 02:43:29;;;;;;;;;22.50;19.75;;;;;13.81;47.51;100593.44;2124305;27;47151;-67
2022/03/11 02:44:31;;;;;;;;;23.25;22.25;;;;;13.79;47.22;100595.28;2123976;27;47661;-67
2022/03/11 02:45:31;;;;;;;;;27.60;24.20;;;;;13.76;47.36;100586.53;2124169;27;47465;-66
2022/03/11 02:46:32;;;;;;;;;25.00;23.75;;;;;13.76;47.44;100595.41;2126961;27;47619;-67
2022/03/11 02:47:33;;;;;;;;;23.25;22.00;;;;;13.77;47.49;100590.94;2124357;27;47885;-65
2022/03/11 02:48:34;;;;;;;;;23.25;23.25;;;;;13.76;47.55;100586.53;2131039;27;47811;-66
2022/03/11 02:49:34;;;;;;;;;23.50;22.00;;;;;13.76;47.48;100592.75;2132567;27;47785;-66
2022/03/11 02:50:34;;;;;;;;;21.25;20.50;;;;;13.75;47.50;100585.69;2131247;27;47952;-66
2022/03/11 02:51:35;;;;;;;;;21.00;21.00;;;;;13.75;47.50;100582.13;2125010;27;46993;-68
2022/03/11 02:52:36;;;;;;;;;21.00;20.75;;;;;13.75;47.58;100591.00;2128577;27;47808;-67
2022/03/11 02:53:42;;;;;;;;;23.00;21.00;;;;;13.76;47.61;100581.22;2124016;27;47458;-66
2022/03/11 02:54:42;;;;;;;;;22.60;21.00;;;;;13.75;47.65;100585.69;2124100;27;47738;-68
2022/03/11 02:55:43;;;;;;;;;20.75;20.75;;;;;13.75;47.64;100579.47;2114830;27;47533;-67
2022/03/11 02:56:43;;;;;;;;;20.75;19.25;;;;;13.75;47.76;100576.81;2115080;27;47425;-66
2022/03/11 02:57:44;;;;;;;;;22.00;22.00;;;;;13.73;47.71;100571.53;2114947;27;47184;-65
2022/03/11 02:58:44;;;;;;;;;24.25;22.50;;;;;13.72;47.60;100575.13;2114838;27;47575;-66
2022/03/11 02:59:45;;;;;;;;;8.00;7.00;;;;;13.73;47.53;100579.53;2114858;27;47729;-67
2022/03/11 03:00:46;;;;;;;;;19.80;19.80;;;;;13.72;47.74;100577.78;2114978;27;47732;-67
2022/03/11 03:01:47;;;;;;;;;24.50;23.25;;;;;13.70;47.81;100576.09;2123959;27;47963;-67
2022/03/11 03:02:47;;;;;;;;;22.00;20.75;;;;;13.70;47.65;100579.63;2123930;27;47684;-67
2022/03/11 03:03:48;;;;;;;;;20.00;19.00;;;;;13.70;47.81;100573.41;2126511;27;47427;-66
2022/03/11 03:04:48;;;;;;;;;22.50;20.75;;;;;13.70;47.64;100576.94;2125299;27;47181;-65
2022/03/11 03:05:48;;;;;;;;;22.25;21.75;;;;;13.69;47.82;100569.00;2125129;27;47474;-66
2022/03/11 03:06:50;;;;;;;;;21.50;19.75;;;;;13.67;47.74;100571.75;2121057;27;47154;-67
2022/03/11 03:07:50;;;;;;;;;17.20;16.20;;;;;13.66;47.89;100567.34;2115300;27;48024;-67
2022/03/11 03:08:50;;;;;;;;;24.50;22.25;;;;;13.66;47.90;100564.66;2123657;27;47406;-65
2022/03/11 03:09:51;;;;;;;;;23.50;22.50;;;;;13.64;47.92;100563.84;2124355;27;47012;-67
2022/03/11 03:10:51;;;;;;;;;22.50;22.50;;;;;13.63;48.06;100564.78;2131107;27;47706;-65
2022/03/11 03:11:52;;;;;;;;;26.00;23.50;;;;;13.62;47.95;100564.84;2130758;27;47294;-67
2022/03/11 03:12:53;;;;;;;;;20.20;19.00;;;;;13.61;47.98;100563.97;2124151;27;47547;-68
2022/03/11 03:13:53;;;;;;;;;24.50;23.50;;;;;13.60;48.12;100566.72;2105442;28;47665;-67
2022/03/11 03:14:54;;;;;;;;;29.75;25.75;;;;;13.61;48.06;100569.31;2097361;28;47824;-67
2022/03/11 03:15:54;;;;;;;;;25.50;25.00;;;;;13.60;48.14;100562.25;2122852;27;47280;-68
2022/03/11 03:16:54;;;;;;;;;19.25;18.75;;;;;13.58;48.17;100566.72;2122586;27;47703;-68
2022/03/11 03:17:55;;;;;;;;;23.25;22.25;;;;;13.57;48.23;100564.13;2117327;27;47719;-67
2022/03/11 03:18:55;;;;;;;;;23.00;22.00;;;;;13.52;48.42;100561.63;2124174;27;47604;-68
2022/03/11 03:19:55;;;;;;;;;26.00;23.25;;;;;13.50;48.08;100552.84;2132765;27;47545;-67
2022/03/11 03:20:56;;;;;;;;;20.50;20.50;;;;;13.47;48.24;100551.16;2132646;27;47729;-68
2022/03/11 03:21:56;;;;;;;;;18.75;16.50;;;;;13.47;48.14;100550.28;2132506;27;47694;-67
2022/03/11 03:22:57;;;;;;;;;22.75;21.00;;;;;13.46;48.38;100549.38;2116678;27;47477;-67
2022/03/11 03:23:57;;;;;;;;;22.00;21.00;;;;;13.45;48.26;100550.31;2115959;27;47735;-67
2022/03/11 03:24:58;;;;;;;;;12.25;11.75;;;;;13.43;48.48;100543.31;2132679;27;47599;-68
2022/03/11 03:25:58;;;;;;;;;23.75;22.25;;;;;13.42;48.37;100541.56;2132151;27;47627;-67
2022/03/11 03:26:59;;;;;;;;;20.50;20.50;;;;;13.39;48.46;100534.56;2122176;27;47425;-67
2022/03/11 03:27:59;;;;;;;;;22.00;21.50;;;;;13.38;48.53;100532.81;2122487;27;47255;-66
2022/03/11 03:29:00;;;;;;;;;20.50;20.50;;;;;13.40;48.63;100522.09;2122229;27;47897;-67
2022/03/11 03:30:00;;;;;;;;;21.25;21.00;;;;;13.39;48.73;100525.69;2122627;27;47525;-66
2022/03/11 03:31:01;;;;;;;;;23.00;20.25;;;;;13.38;48.79;100530.16;2122705;27;47908;-65
2022/03/11 03:32:02;;;;;;;;;20.00;19.50;;;;;13.38;48.70;100529.28;2122459;27;47210;-68
2022/03/11 03:33:03;;;;;;;;;21.20;20.20;;;;;13.37;48.63;100523.09;2122405;27;47903;-67
2022/03/11 03:34:03;;;;;;;;;17.50;16.25;;;;;13.36;48.70;100526.69;2122336;27;47331;-63
2022/03/11 03:35:04;;;;;;;;;21.50;21.00;;;;;13.36;48.87;100531.13;2113485;27;47033;-68
2022/03/11 03:36:04;;;;;;;;;20.25;20.00;;;;;13.36;48.71;100531.13;2113376;27;47392;-67
2022/03/11 03:37:07;;;;;;;;;23.25;21.75;;;;;13.37;48.86;100530.22;2121807;27;47411;-67
2022/03/11 03:38:08;;;;;;;;;21.20;19.40;;;;;13.36;48.83;100523.16;2131138;27;48077;-67
2022/03/11 03:39:08;;;;;;;;;18.25;18.25;;;;;13.37;48.81;100525.75;2112342;27;47716;-67
2022/03/11 03:40:09;;;;;;;;;18.25;17.75;;;;;13.37;48.89;100528.41;2112678;27;47244;-65
2022/03/11 03:41:10;;;;;;;;;19.00;17.20;;;;;13.37;48.86;100524.88;2130826;27;47345;-66
2022/03/11 03:42:10;;;;;;;;;24.25;20.50;;;;;13.36;48.95;100532.00;2130830;27;47907;-66
2022/03/11 03:43:11;;;;;;;;;21.50;21.00;;;;;13.37;49.08;100527.53;2130083;27;47257;-66
2022/03/11 03:44:11;;;;;;;;;22.50;21.75;;;;;13.36;49.18;100533.81;2122729;27;47431;-67
2022/03/11 03:45:11;;;;;;;;;19.75;19.75;;;;;13.32;48.90;100527.69;2122286;27;47928;-68
2022/03/11 03:46:12;;;;;;;;;23.50;22.00;;;;;13.31;48.96;100530.41;2127941;27;47736;-67
2022/03/11 03:47:12;;;;;;;;;20.00;18.75;;;;;13.29;49.04;100527.81;2129916;27;47754;-67
2022/03/11 03:48:13;;;;;;;;;23.00;21.75;;;;;13.28;48.94;100522.53;2122345;27;47672;-68
2022/03/11 03:49:13;;;;;;;;;23.00;20.25;;;;;13.28;49.05;100527.88;2122422;27;47556;-68
2022/03/11 03:50:14;;;;;;;;;21.50;20.00;;;;;13.28;49.04;100530.53;2122237;27;47693;-67
2022/03/11 03:51:15;;;;;;;;;25.75;22.25;;;;;13.27;49.12;100519.00;2122117;27;47770;-66
2022/03/11 03:52:15;;;;;;;;;17.50;17.50;;;;;13.25;49.08;100520.84;2122247;27;47422;-68
2022/03/11 03:53:16;;;;;;;;;22.75;21.00;;;;;13.25;49.17;100518.19;2122303;27;47942;-67
2022/03/11 03:54:17;;;;;;;;;20.25;20.25;;;;;13.27;48.99;100523.47;2122838;27;47169;-66
2022/03/11 03:55:17;;;;;;;;;21.40;19.80;;;;;13.24;49.17;100525.31;2122425;27;47807;-66
2022/03/11 03:56:18;;;;;;;;;20.25;20.25;;;;;13.23;49.21;100523.59;2122565;27;47286;-66
2022/03/11 03:57:18;;;;;;;;;23.25;22.25;;;;;13.21;49.29;100521.88;2121874;27;47610;-68
2022/03/11 03:58:18;;;;;;;;;21.50;21.25;;;;;13.18;49.44;100517.53;2103906;28;47729;-67
2022/03/11 03:59:19;;;;;;;;;18.25;18.00;;;;;13.16;49.44;100514.03;2108355;27;47601;-68
2022/03/11 04:00:21;;;;;;;;;19.50;19.25;;;;;13.16;49.50;100522.00;2124049;27;47997;-66
2022/03/11 04:01:21;;;;;;;;;24.00;21.60;;;;;13.16;49.46;100510.47;2130623;27;48144;-63
2022/03/11 04:02:22;;;;;;;;;23.25;21.75;;;;;13.15;49.42;100514.06;2124477;27;48111;-66
2022/03/11 04:03:22;;;;;;;;;20.50;19.50;;;;;13.15;49.51;100508.75;2122146;27;47823;-67
2022/03/11 04:04:23;;;;;;;;;17.50;16.25;;;;;13.14;49.59;100509.69;2122357;27;47637;-66
2022/03/11 04:05:23;;;;;;;;;22.00;21.00;;;;;13.13;49.56;100508.81;2122275;27;47019;-66
2022/03/11 04:06:24;;;;;;;;;20.00;18.00;;;;;13.12;49.69;100515.06;2122333;27;47375;-66
2022/03/11 04:07:24;;;;;;;;;18.50;18.25;;;;;13.12;49.78;100515.06;2113105;27;47603;-66
2022/03/11 04:08:25;;;;;;;;;23.75;21.50;;;;;13.11;49.89;100507.13;2113183;27;48196;-66
2022/03/11 04:09:25;;;;;;;;;24.75;24.00;;;;;13.10;49.81;100508.06;2124328;27;47728;-66
2022/03/11 04:10:26;;;;;;;;;26.00;21.25;;;;;13.08;49.81;100508.06;2123980;27;47878;-68
2022/03/11 04:11:28;;;;;;;;;17.75;17.25;;;;;13.07;49.87;100503.69;2122377;27;47669;-66
2022/03/11 04:12:28;;;;;;;;;14.60;14.60;;;;;13.07;49.89;100511.66;2122453;27;47945;-66
2022/03/11 04:13:29;;;;;;;;;17.25;16.25;;;;;13.07;50.04;100508.13;2122079;27;48000;-68
2022/03/11 04:14:29;;;;;;;;;25.00;22.00;;;;;13.05;50.01;100507.31;2122733;27;47492;-67
2022/03/11 04:15:29;;;;;;;;;19.50;19.50;;;;;13.05;49.96;100508.19;2122158;27;47774;-67
2022/03/11 04:16:30;;;;;;;;;23.00;21.75;;;;;13.05;50.04;100510.00;2113026;27;47759;-69
2022/03/11 04:17:31;;;;;;;;;20.00;19.00;;;;;13.05;50.15;100510.00;2117589;27;47187;-66
2022/03/11 04:18:31;;;;;;;;;15.75;15.50;;;;;13.04;50.08;100501.13;2121053;27;47838;-67
2022/03/11 04:19:31;;;;;;;;;20.00;19.50;;;;;13.05;50.08;100507.31;2113270;27;47419;-68
2022/03/11 04:20:32;;;;;;;;;21.25;20.75;;;;;13.05;50.07;100500.22;2122076;27;47584;-66
2022/03/11 04:21:32;;;;;;;;;16.00;16.00;;;;;13.06;50.04;100501.06;2122473;27;47396;-66
2022/03/11 04:22:39;;;;;;;;;23.00;20.00;;;;;13.05;50.02;100494.00;2129765;27;47901;-68
2022/03/11 04:23:44;;;;;;;;;17.00;17.00;;;;;13.06;49.99;100498.41;2127490;27;47582;-68
2022/03/11 04:24:44;;;;;;;;;18.60;18.20;;;;;13.06;50.13;100503.75;2122015;27;47949;-66
2022/03/11 04:25:45;;;;;;;;;17.00;16.25;;;;;13.05;50.14;100497.53;2112816;27;47393;-67
2022/03/11 04:26:45;;;;;;;;;23.00;21.50;;;;;13.02;50.11;100494.13;2113061;27;48101;-68
2022/03/11 04:27:45;;;;;;;;;13.50;12.50;;;;;12.98;50.16;100493.38;2122343;27;47307;-67
2022/03/11 04:28:46;;;;;;;;;17.75;17.75;;;;;12.96;50.21;100487.22;2121991;27;47461;-68
2022/03/11 04:29:46;;;;;;;;;18.00;15.00;;;;;12.95;50.10;100488.13;2122318;27;47295;-65
2022/03/11 04:30:47;;;;;;;;;16.75;16.75;;;;;12.95;50.19;100490.78;2121812;27;48522;-68
2022/03/11 04:31:47;;;;;;;;;16.75;16.75;;;;;12.95;50.31;100486.31;2125838;27;48215;-67
2022/03/11 04:32:48;;;;;;;;;16.50;16.25;;;;;12.96;50.31;100492.56;2130584;27;47350;-68
2022/03/11 04:33:48;;;;;;;;;17.00;16.25;;;;;12.93;50.34;100496.19;2130871;27;47777;-66
2022/03/11 04:34:49;;;;;;;;;18.25;17.00;;;;;12.93;50.34;100490.84;2127782;27;48040;-67
2022/03/11 04:35:49;;;;;;;;;16.00;14.75;;;;;12.93;50.45;100495.31;2122398;27;47697;-68